createdAt,value
2023-02-06T00:00:28.566Z,-4.27
2023-02-06T00:02:59.226Z,-4.25
2023-02-06T00:05:29.260Z,-4.24
2023-02-06T00:07:59.113Z,-4.23
2023-02-06T00:10:29.464Z,-4.21
2023-02-06T00:12:59.500Z,-4.20
2023-02-06T00:15:29.544Z,-4.16
2023-02-06T00:17:59.602Z,-4.14
2023-02-06T00:20:29.902Z,-4.11
2023-02-06T00:23:00.048Z,-4.12
2023-02-06T00:25:30.101Z,-4.16
2023-02-06T00:28:00.128Z,-4.19
2023-02-06T00:30:30.287Z,-4.18
2023-02-06T00:33:00.258Z,-4.15
2023-02-06T00:35:30.877Z,-4.15
2023-02-06T00:38:02.081Z,-4.12
2023-02-06T00:40:32.258Z,-4.11
2023-02-06T00:43:02.776Z,-4.09
2023-02-06T00:45:33.307Z,-4.08
2023-02-06T00:48:04.632Z,-4.06
2023-02-06T00:50:34.791Z,-4.05
2023-02-06T00:53:05.270Z,-4.05
2023-02-06T00:55:35.596Z,-4.05
2023-02-06T00:58:05.768Z,-4.10
2023-02-06T01:00:35.970Z,-4.17
2023-02-06T01:03:06.109Z,-4.15
2023-02-06T01:05:36.298Z,-4.14
2023-02-06T01:08:06.476Z,-4.10
2023-02-06T01:10:36.607Z,-4.14
2023-02-06T01:13:06.584Z,-4.20
2023-02-06T01:15:37.729Z,-4.19
2023-02-06T01:18:08.045Z,-4.16
2023-02-06T01:20:39.762Z,-4.14
2023-02-06T01:23:10.182Z,-4.18
2023-02-06T01:25:40.489Z,-4.17
2023-02-06T01:28:11.856Z,-4.20
2023-02-06T01:31:02.196Z,-4.18
2023-02-06T01:33:32.361Z,-4.15
2023-02-06T01:36:02.611Z,-4.13
2023-02-06T01:38:33.298Z,-4.11
2023-02-06T01:41:04.669Z,-4.09
2023-02-06T01:43:38.142Z,-4.08
2023-02-06T01:46:09.089Z,-4.10
2023-02-06T01:48:41.829Z,-4.10
2023-02-06T01:51:17.544Z,-4.08
2023-02-06T01:53:50.411Z,-4.08
2023-02-06T01:56:21.601Z,-4.11
2023-02-06T01:58:55.584Z,-4.12
2023-02-06T02:01:26.361Z,-4.12
2023-02-06T02:04:02.174Z,-4.16
2023-02-06T02:06:33.021Z,-4.14
2023-02-06T02:09:04.450Z,-4.15
2023-02-06T02:11:37.766Z,-4.17
2023-02-06T02:14:10.602Z,-4.16
2023-02-06T02:16:51.757Z,-4.16
2023-02-06T02:20:06.986Z,-4.16
2023-02-06T02:22:52.337Z,-4.18
2023-02-06T02:26:07.090Z,-4.16
2023-02-06T02:29:26.815Z,-4.19
2023-02-06T02:32:21.572Z,-4.19
2023-02-06T02:35:07.838Z,-4.17
2023-02-06T02:37:50.322Z,-4.15
2023-02-06T02:40:27.241Z,-4.15
2023-02-06T02:43:09.490Z,-4.15
2023-02-06T02:45:46.620Z,-4.16
2023-02-06T02:48:20.384Z,-4.17
2023-02-06T02:50:49.946Z,-4.17
2023-02-06T02:53:19.935Z,-4.20
2023-02-06T02:55:50.369Z,-4.21
2023-02-06T02:58:27.454Z,-4.22
2023-02-06T03:01:02.706Z,-4.24
2023-02-06T03:03:35.424Z,-4.25
2023-02-06T03:06:27.481Z,-4.26
2023-02-06T03:09:04.037Z,-4.25
2023-02-06T03:11:37.321Z,-4.25
2023-02-06T03:14:16.681Z,-4.26
2023-02-06T03:16:52.162Z,-4.27
2023-02-06T03:19:28.209Z,-4.27
2023-02-06T03:21:58.362Z,-4.28
2023-02-06T03:24:33.102Z,-4.32
2023-02-06T03:27:07.243Z,-4.43
2023-02-06T03:29:41.494Z,-4.50
2023-02-06T03:32:16.893Z,-4.48
2023-02-06T03:34:54.008Z,-4.45
2023-02-06T03:37:25.370Z,-4.42
2023-02-06T03:39:57.871Z,-4.42
2023-02-06T03:42:29.644Z,-4.42
2023-02-06T03:45:02.742Z,-4.42
2023-02-06T03:47:34.397Z,-4.40
2023-02-06T03:50:06.718Z,-4.41
2023-02-06T03:52:40.523Z,-4.41
2023-02-06T03:55:14.233Z,-4.47
2023-02-06T03:57:45.115Z,-4.46
2023-02-06T04:00:17.068Z,-4.48
2023-02-06T04:02:48.090Z,-4.44
2023-02-06T04:05:19.845Z,-4.41
2023-02-06T04:07:52.497Z,-4.40
2023-02-06T04:10:23.946Z,-4.39
2023-02-06T04:12:55.516Z,-4.39
2023-02-06T04:15:25.691Z,-4.38
2023-02-06T04:18:01.307Z,-4.39
2023-02-06T04:20:32.248Z,-4.39
2023-02-06T04:23:02.178Z,-4.41
2023-02-06T04:25:32.125Z,-4.41
2023-02-06T04:28:02.309Z,-4.42
2023-02-06T04:30:32.577Z,-4.41
2023-02-06T04:33:02.706Z,-4.41
2023-02-06T04:35:33.156Z,-4.48
2023-02-06T04:38:03.656Z,-4.52
2023-02-06T04:40:33.570Z,-4.50
2023-02-06T04:43:03.610Z,-4.49
2023-02-06T04:45:34.395Z,-4.50
2023-02-06T04:48:05.058Z,-4.47
2023-02-06T04:50:34.930Z,-4.45
2023-02-06T04:53:04.708Z,-4.47
2023-02-06T04:55:36.946Z,-4.45
2023-02-06T04:58:07.167Z,-4.44
2023-02-06T05:00:38.750Z,-4.43
2023-02-06T05:03:08.791Z,-4.42
2023-02-06T05:05:38.922Z,-4.43
2023-02-06T05:08:08.852Z,-4.46
2023-02-06T05:10:38.871Z,-4.46
2023-02-06T05:13:08.983Z,-4.43
2023-02-06T05:15:39.775Z,-4.43
2023-02-06T05:18:10.105Z,-4.46
2023-02-06T05:20:40.324Z,-4.45
2023-02-06T05:23:10.650Z,-4.43
2023-02-06T05:25:42.269Z,-4.42
2023-02-06T05:28:12.652Z,-4.41
2023-02-06T05:30:43.143Z,-4.42
2023-02-06T05:33:13.404Z,-4.46
2023-02-06T05:35:43.606Z,-4.50
2023-02-06T05:38:14.413Z,-4.49
2023-02-06T05:40:45.343Z,-4.49
2023-02-06T05:43:15.543Z,-4.47
2023-02-06T05:45:45.441Z,-4.46
2023-02-06T05:48:15.444Z,-4.45
2023-02-06T05:50:45.723Z,-4.45
2023-02-06T05:53:18.162Z,-4.44
2023-02-06T05:55:48.405Z,-4.42
2023-02-06T05:58:18.760Z,-4.42
2023-02-06T06:00:48.907Z,-4.41
2023-02-06T06:03:19.617Z,-4.38
2023-02-06T06:05:50.121Z,-4.37
2023-02-06T06:08:20.484Z,-4.36
2023-02-06T06:10:52.607Z,-4.37
2023-02-06T06:13:22.757Z,-4.37
2023-02-06T06:15:53.547Z,-4.41
2023-02-06T06:18:23.956Z,-4.47
2023-02-06T06:20:54.001Z,-4.57
2023-02-06T06:23:23.914Z,-4.59
2023-02-06T06:25:53.803Z,-4.58
2023-02-06T06:28:23.817Z,-4.57
2023-02-06T06:31:02.249Z,-4.55
2023-02-06T06:33:32.620Z,-4.51
2023-02-06T06:36:02.622Z,-4.50
2023-02-06T06:38:32.845Z,-4.49
2023-02-06T06:41:03.238Z,-4.47
2023-02-06T06:43:33.175Z,-4.45
2023-02-06T06:46:05.019Z,-4.43
2023-02-06T06:48:36.992Z,-4.41
2023-02-06T06:51:08.203Z,-4.37
2023-02-06T06:53:39.769Z,-4.36
2023-02-06T06:56:13.191Z,-4.34
2023-02-06T06:58:43.599Z,-4.31
2023-02-06T07:01:14.795Z,-4.29
2023-02-06T07:03:47.063Z,-4.27
2023-02-06T07:06:17.721Z,-4.25
2023-02-06T07:08:47.719Z,-4.21
2023-02-06T07:11:18.439Z,-4.16
2023-02-06T07:13:49.299Z,-4.11
2023-02-06T07:16:19.406Z,-4.06
2023-02-06T07:18:49.493Z,-4.03
2023-02-06T07:21:21.343Z,-3.98
2023-02-06T07:23:51.319Z,-3.90
2023-02-06T07:26:21.670Z,-3.83
2023-02-06T07:28:52.533Z,-3.78
2023-02-06T07:31:22.754Z,-3.70
2023-02-06T07:33:53.029Z,-3.65
2023-02-06T07:36:23.310Z,-3.56
2023-02-06T07:38:53.699Z,-3.50
2023-02-06T07:41:24.123Z,-3.42
2023-02-06T07:43:54.990Z,-3.34
2023-02-06T07:46:25.076Z,-3.26
2023-02-06T07:48:55.209Z,-3.23
2023-02-06T07:51:25.028Z,-3.20
2023-02-06T07:53:55.755Z,-3.16
2023-02-06T07:56:25.994Z,-3.10
2023-02-06T07:58:56.558Z,-3.04
2023-02-06T08:01:26.692Z,-2.97
2023-02-06T08:03:57.050Z,-2.89
2023-02-06T08:06:27.724Z,-2.83
2023-02-06T08:08:58.455Z,-2.80
2023-02-06T08:11:30.677Z,-2.72
2023-02-06T08:14:02.774Z,-2.62
2023-02-06T08:16:33.216Z,-2.57
2023-02-06T08:19:03.790Z,-2.51
2023-02-06T08:21:37.009Z,-2.44
2023-02-06T08:24:07.761Z,-2.40
2023-02-06T08:26:37.866Z,-2.43
2023-02-06T08:29:08.934Z,-2.41
2023-02-06T08:31:41.137Z,-2.46
2023-02-06T08:34:14.924Z,-2.47
2023-02-06T08:36:45.460Z,-2.41
2023-02-06T08:39:17.190Z,-2.43
2023-02-06T08:41:47.408Z,-2.48
2023-02-06T08:44:19.349Z,-2.41
2023-02-06T08:46:52.416Z,-2.38
2023-02-06T08:49:27.379Z,-2.31
2023-02-06T08:51:57.469Z,-2.22
2023-02-06T08:54:27.400Z,-2.13
2023-02-06T08:57:00.669Z,-1.93
2023-02-06T08:59:30.776Z,-1.71
2023-02-06T09:02:01.204Z,-1.47
2023-02-06T09:04:34.263Z,-1.28
2023-02-06T09:07:04.311Z,-1.03
2023-02-06T09:09:34.487Z,-0.89
2023-02-06T09:12:05.099Z,-0.77
2023-02-06T09:14:35.582Z,-0.53
2023-02-06T09:17:05.723Z,-0.33
2023-02-06T09:19:35.693Z,-0.45
2023-02-06T09:22:07.189Z,-0.52
2023-02-06T09:24:37.765Z,-0.54
2023-02-06T09:27:07.805Z,-0.64
2023-02-06T09:29:37.758Z,-0.53
2023-02-06T09:32:07.795Z,-0.63
2023-02-06T09:34:37.835Z,-0.52
2023-02-06T09:37:07.872Z,-0.48
2023-02-06T09:39:38.143Z,-0.43
2023-02-06T09:42:11.794Z,-0.53
2023-02-06T09:44:48.796Z,-0.62
2023-02-06T09:47:25.657Z,-0.53
2023-02-06T09:49:59.055Z,-0.45
2023-02-06T09:52:43.914Z,-0.44
2023-02-06T09:55:23.499Z,-0.24
2023-02-06T09:57:59.252Z,-0.22
2023-02-06T10:00:41.355Z,-0.40
2023-02-06T10:03:29.932Z,-0.36
2023-02-06T10:06:11.904Z,-0.12
2023-02-06T10:08:47.512Z,-0.13
2023-02-06T10:11:25.695Z,-0.13
2023-02-06T10:14:00.431Z,-0.21
2023-02-06T10:16:39.222Z,-0.19
2023-02-06T10:19:17.292Z,-0.57
2023-02-06T10:21:52.582Z,-0.39
2023-02-06T10:24:32.761Z,-0.33
2023-02-06T10:27:09.763Z,-0.30
2023-02-06T10:29:41.062Z,-0.19
2023-02-06T10:32:23.710Z,-0.29
2023-02-06T10:35:13.758Z,-0.29
2023-02-06T10:38:20.400Z,-0.16
2023-02-06T10:40:59.268Z,-0.27
2023-02-06T10:43:39.498Z,-0.32
2023-02-06T10:46:29.079Z,-0.41
2023-02-06T10:49:05.404Z,-0.35
2023-02-06T10:51:38.677Z,-0.49
2023-02-06T10:54:16.609Z,-0.32
2023-02-06T10:56:48.467Z,-0.26
2023-02-06T10:59:26.771Z,-0.19
2023-02-06T11:02:13.990Z,0.03
2023-02-06T11:04:49.241Z,-0.13
2023-02-06T11:07:24.769Z,-0.15
2023-02-06T11:09:55.076Z,-0.28
2023-02-06T11:12:36.095Z,-0.22
2023-02-06T11:15:18.149Z,-0.34
2023-02-06T11:17:48.329Z,-0.33
2023-02-06T11:20:22.895Z,-0.22
2023-02-06T11:22:53.863Z,-0.24
2023-02-06T11:25:28.721Z,-0.14
2023-02-06T11:28:00.342Z,-0.15
2023-02-06T11:30:34.907Z,-0.37
2023-02-06T11:33:08.862Z,-0.22
2023-02-06T11:35:49.713Z,-0.17
2023-02-06T11:38:21.842Z,-0.02
2023-02-06T11:41:00.823Z,-0.02
2023-02-06T11:43:32.958Z,-0.04
2023-02-06T11:46:16.451Z,-0.11
2023-02-06T11:48:48.626Z,-0.11
2023-02-06T11:51:19.321Z,-0.08
2023-02-06T11:54:03.292Z,0.01
2023-02-06T11:56:32.265Z,-0.01
2023-02-06T11:59:22.748Z,-0.15
2023-02-06T12:01:52.773Z,-0.12
2023-02-06T12:04:26.465Z,-0.22
2023-02-06T12:07:03.195Z,-0.20
2023-02-06T12:09:33.550Z,-0.05
2023-02-06T12:12:13.749Z,-0.19
2023-02-06T12:14:48.190Z,-0.01
2023-02-06T12:17:25.748Z,-0.07
2023-02-06T12:20:03.202Z,-0.18
2023-02-06T12:22:39.831Z,-0.24
2023-02-06T12:25:25.199Z,-0.24
2023-02-06T12:27:58.573Z,-0.36
2023-02-06T12:30:35.560Z,-0.33
2023-02-06T12:33:12.881Z,-0.26
2023-02-06T12:35:46.121Z,-0.18
2023-02-06T12:38:22.588Z,-0.27
2023-02-06T12:41:03.596Z,-0.19
2023-02-06T12:43:36.413Z,-0.19
2023-02-06T12:46:13.977Z,-0.25
2023-02-06T12:48:51.273Z,-0.33
2023-02-06T12:51:26.700Z,-0.27
2023-02-06T12:54:01.055Z,-0.27
2023-02-06T12:56:36.022Z,-0.25
2023-02-06T12:59:31.229Z,-0.50
2023-02-06T13:02:16.383Z,-0.57
2023-02-06T13:04:47.416Z,-0.58
2023-02-06T13:07:21.924Z,-0.44
2023-02-06T13:09:55.491Z,-0.48
2023-02-06T13:12:27.847Z,-0.48
2023-02-06T13:15:00.183Z,-0.53
2023-02-06T13:17:36.459Z,-0.45
2023-02-06T13:20:10.144Z,-0.45
2023-02-06T13:22:46.670Z,-0.45
2023-02-06T13:25:49.013Z,-0.35
2023-02-06T13:29:08.077Z,-0.41
2023-02-06T13:31:38.713Z,-0.38
2023-02-06T13:34:14.371Z,-0.46
2023-02-06T13:36:53.357Z,-0.70
2023-02-06T13:39:34.918Z,-0.84
2023-02-06T13:42:32.680Z,-0.80
2023-02-06T13:45:06.558Z,-0.73
2023-02-06T13:48:05.924Z,-0.63
2023-02-06T13:50:54.526Z,-0.55
2023-02-06T13:54:05.759Z,-0.61
2023-02-06T13:56:47.933Z,-0.56
2023-02-06T13:59:20.549Z,-0.57
2023-02-06T14:01:50.737Z,-0.49
2023-02-06T14:04:24.983Z,-0.51
2023-02-06T14:07:27.000Z,-0.61
2023-02-06T14:10:33.939Z,-0.93
2023-02-06T14:13:20.092Z,-1.05
2023-02-06T14:15:59.375Z,-1.05
2023-02-06T14:18:43.178Z,-1.06
2023-02-06T14:21:27.716Z,-1.06
2023-02-06T14:24:10.575Z,-1.12
2023-02-06T14:26:49.130Z,-1.19
2023-02-06T14:29:28.604Z,-1.21
2023-02-06T14:32:24.083Z,-1.31
2023-02-06T14:35:15.200Z,-1.41
2023-02-06T14:38:06.228Z,-1.49
2023-02-06T14:40:42.156Z,-1.61
2023-02-06T14:43:17.713Z,-1.70
2023-02-06T14:46:05.399Z,-1.82
2023-02-06T14:48:40.490Z,-1.91
2023-02-06T14:51:22.478Z,-2.11
2023-02-06T14:53:57.565Z,-2.38
2023-02-06T14:56:31.014Z,-2.56
2023-02-06T14:59:10.754Z,-2.64
2023-02-06T15:01:41.415Z,-2.79
2023-02-06T15:04:13.514Z,-2.83
2023-02-06T15:06:50.374Z,-2.82
2023-02-06T15:09:29.497Z,-2.89
2023-02-06T15:12:02.068Z,-2.93
2023-02-06T15:14:35.042Z,-3.01
2023-02-06T15:17:05.072Z,-3.12
2023-02-06T15:19:36.247Z,-3.19
2023-02-06T15:22:11.957Z,-3.24
2023-02-06T15:25:06.999Z,-3.36
2023-02-06T15:27:38.799Z,-3.47
2023-02-06T15:30:21.672Z,-3.44
2023-02-06T15:32:53.438Z,-3.45
2023-02-06T15:35:26.028Z,-3.69
2023-02-06T15:37:57.251Z,-3.95
2023-02-06T15:40:31.096Z,-4.13
2023-02-06T15:43:02.282Z,-4.21
2023-02-06T15:45:36.073Z,-4.26
2023-02-06T15:48:12.861Z,-4.30
2023-02-06T15:50:54.540Z,-4.37
2023-02-06T15:53:33.029Z,-4.46
2023-02-06T15:56:04.940Z,-4.61
2023-02-06T15:58:36.719Z,-4.79
2023-02-06T16:01:13.972Z,-4.89
2023-02-06T16:03:44.361Z,-4.95
2023-02-06T16:06:17.822Z,-5.02
2023-02-06T16:08:54.611Z,-5.29
2023-02-06T16:11:47.005Z,-5.43
2023-02-06T16:14:24.840Z,-5.48
2023-02-06T16:17:02.632Z,-5.49
2023-02-06T16:19:47.027Z,-5.42
2023-02-06T16:22:22.690Z,-5.38
2023-02-06T16:24:54.673Z,-5.40
2023-02-06T16:27:26.831Z,-5.42
2023-02-06T16:29:58.126Z,-5.43
2023-02-06T16:32:31.393Z,-5.41
2023-02-06T16:35:01.716Z,-5.38
2023-02-06T16:37:32.140Z,-5.35
2023-02-06T16:40:03.587Z,-5.33
2023-02-06T16:42:37.780Z,-5.30
2023-02-06T16:45:10.688Z,-5.29
2023-02-06T16:47:42.088Z,-5.25
2023-02-06T16:50:12.619Z,-5.29
2023-02-06T16:52:47.911Z,-5.40
2023-02-06T16:55:23.197Z,-5.49
2023-02-06T16:57:57.270Z,-5.63
2023-02-06T17:00:31.263Z,-5.73
2023-02-06T17:03:01.788Z,-5.94
2023-02-06T17:05:32.973Z,-6.04
2023-02-06T17:08:04.346Z,-6.13
2023-02-06T17:10:34.763Z,-6.21
2023-02-06T17:13:06.432Z,-6.26
2023-02-06T17:15:36.590Z,-6.31
2023-02-06T17:18:07.073Z,-6.36
2023-02-06T17:20:39.953Z,-6.36
2023-02-06T17:23:11.273Z,-6.34
2023-02-06T17:25:43.754Z,-6.27
2023-02-06T17:28:33.812Z,-6.23
2023-02-06T17:31:04.088Z,-6.13
2023-02-06T17:33:34.289Z,-6.05
2023-02-06T17:36:07.970Z,-5.98
2023-02-06T17:38:37.946Z,-5.91
2023-02-06T17:41:08.537Z,-5.86
2023-02-06T17:43:38.541Z,-5.93
2023-02-06T17:46:21.665Z,-6.02
2023-02-06T17:48:55.488Z,-6.07
2023-02-06T17:51:26.956Z,-6.21
2023-02-06T17:54:00.144Z,-6.31
2023-02-06T17:56:30.711Z,-6.49
2023-02-06T17:59:21.165Z,-6.53
2023-02-06T18:01:52.357Z,-6.56
2023-02-06T18:04:25.718Z,-6.61
2023-02-06T18:06:58.888Z,-6.70
2023-02-06T18:09:29.683Z,-6.75
2023-02-06T18:11:59.903Z,-6.84
2023-02-06T18:14:31.542Z,-6.80
2023-02-06T18:17:03.334Z,-6.85
2023-02-06T18:19:41.084Z,-6.93
2023-02-06T18:22:14.792Z,-6.92
2023-02-06T18:24:56.635Z,-6.80
2023-02-06T18:27:27.284Z,-6.67
2023-02-06T18:29:57.375Z,-6.58
2023-02-06T18:32:28.274Z,-6.56
2023-02-06T18:34:59.976Z,-6.55
2023-02-06T18:37:30.937Z,-6.46
2023-02-06T18:40:04.108Z,-6.51
2023-02-06T18:42:54.006Z,-6.50
2023-02-06T18:45:35.549Z,-6.52
2023-02-06T18:48:14.224Z,-6.51
2023-02-06T18:50:45.170Z,-6.56
2023-02-06T18:53:18.871Z,-6.61
2023-02-06T18:56:01.234Z,-6.65
2023-02-06T18:58:34.562Z,-6.79
2023-02-06T19:01:15.662Z,-7.00
2023-02-06T19:03:50.053Z,-7.06
2023-02-06T19:06:26.266Z,-7.00
2023-02-06T19:08:59.396Z,-7.15
2023-02-06T19:11:32.323Z,-7.28
2023-02-06T19:14:05.742Z,-7.33
2023-02-06T19:16:40.724Z,-7.27
2023-02-06T19:19:12.954Z,-7.26
2023-02-06T19:21:49.695Z,-7.18
2023-02-06T19:24:23.950Z,-7.11
2023-02-06T19:26:58.853Z,-7.05
2023-02-06T19:29:35.997Z,-7.01
2023-02-06T19:32:12.308Z,-6.97
2023-02-06T19:34:45.851Z,-6.93
2023-02-06T19:37:19.896Z,-6.86
2023-02-06T19:39:51.046Z,-6.78
2023-02-06T19:42:25.048Z,-6.67
2023-02-06T19:45:01.736Z,-6.58
2023-02-06T19:47:38.144Z,-6.60
2023-02-06T19:50:25.998Z,-6.57
2023-02-06T19:53:13.917Z,-6.64
2023-02-06T19:55:52.497Z,-6.80
2023-02-06T19:58:31.928Z,-6.88
2023-02-06T20:01:09.697Z,-6.96
2023-02-06T20:03:40.189Z,-7.00
2023-02-06T20:06:12.183Z,-7.12
2023-02-06T20:08:43.906Z,-7.26
2023-02-06T20:11:16.886Z,-7.31
2023-02-06T20:13:51.583Z,-7.32
2023-02-06T20:16:25.428Z,-7.31
2023-02-06T20:18:56.797Z,-7.29
2023-02-06T20:21:31.107Z,-7.26
2023-02-06T20:24:03.493Z,-7.25
2023-02-06T20:26:35.601Z,-7.19
2023-02-06T20:29:06.707Z,-7.15
2023-02-06T20:31:37.575Z,-7.09
2023-02-06T20:34:07.585Z,-7.03
2023-02-06T20:36:37.796Z,-6.98
2023-02-06T20:39:08.801Z,-6.90
2023-02-06T20:41:39.247Z,-6.98
2023-02-06T20:44:17.932Z,-7.06
2023-02-06T20:46:51.315Z,-6.98
2023-02-06T20:49:23.267Z,-6.94
2023-02-06T20:51:57.372Z,-6.89
2023-02-06T20:54:31.592Z,-6.83
2023-02-06T20:57:04.824Z,-6.83
2023-02-06T20:59:35.321Z,-6.93
2023-02-06T21:02:05.654Z,-6.99
2023-02-06T21:04:35.623Z,-7.02
2023-02-06T21:07:05.883Z,-7.16
2023-02-06T21:09:36.321Z,-7.29
2023-02-06T21:12:07.312Z,-7.41
2023-02-06T21:14:37.627Z,-7.61
2023-02-06T21:17:08.063Z,-7.67
2023-02-06T21:19:38.564Z,-7.71
2023-02-06T21:22:08.711Z,-7.75
2023-02-06T21:24:40.359Z,-7.79
2023-02-06T21:27:10.936Z,-7.78
2023-02-06T21:29:41.401Z,-7.80
2023-02-06T21:32:14.307Z,-7.75
2023-02-06T21:34:44.956Z,-7.66
2023-02-06T21:37:15.039Z,-7.61
2023-02-06T21:39:45.348Z,-7.56
2023-02-06T21:42:15.758Z,-7.49
2023-02-06T21:44:45.853Z,-7.39
2023-02-06T21:47:15.930Z,-7.32
2023-02-06T21:49:46.434Z,-7.32
2023-02-06T21:52:17.127Z,-7.27
2023-02-06T21:54:47.139Z,-7.25
2023-02-06T21:57:17.380Z,-7.20
2023-02-06T21:59:47.307Z,-7.18
2023-02-06T22:02:17.533Z,-7.15
2023-02-06T22:04:47.989Z,-7.04
2023-02-06T22:07:19.380Z,-6.99
2023-02-06T22:09:49.589Z,-7.00
2023-02-06T22:12:21.509Z,-7.09
2023-02-06T22:14:51.689Z,-7.10
2023-02-06T22:17:21.429Z,-7.20
2023-02-06T22:19:53.141Z,-7.31
2023-02-06T22:22:23.350Z,-7.41
2023-02-06T22:24:53.953Z,-7.50
2023-02-06T22:27:25.245Z,-7.54
2023-02-06T22:29:55.359Z,-7.54
2023-02-06T22:32:25.597Z,-7.50
2023-02-06T22:34:58.454Z,-7.46
2023-02-06T22:37:30.909Z,-7.43
2023-02-06T22:40:01.040Z,-7.43
2023-02-06T22:42:31.373Z,-7.40
2023-02-06T22:45:01.696Z,-7.38
2023-02-06T22:47:32.874Z,-7.35
2023-02-06T22:50:02.967Z,-7.31
2023-02-06T22:52:50.805Z,-7.30
2023-02-06T22:55:20.828Z,-7.31
2023-02-06T22:57:50.733Z,-7.31
2023-02-06T23:00:21.382Z,-7.33
2023-02-06T23:02:51.375Z,-7.27
2023-02-06T23:05:21.689Z,-7.19
2023-02-06T23:07:51.566Z,-7.14
2023-02-06T23:10:21.682Z,-7.18
2023-02-06T23:12:51.748Z,-7.20
2023-02-06T23:15:21.938Z,-7.43
2023-02-06T23:17:52.419Z,-7.45
2023-02-06T23:20:22.569Z,-7.51
2023-02-06T23:22:52.447Z,-7.42
2023-02-06T23:25:22.469Z,-7.41
2023-02-06T23:27:52.671Z,-7.42
2023-02-06T23:30:23.460Z,-7.46
2023-02-06T23:32:53.465Z,-7.51
2023-02-06T23:35:23.318Z,-7.55
2023-02-06T23:37:53.446Z,-7.65
2023-02-06T23:40:23.238Z,-7.80
2023-02-06T23:42:53.736Z,-7.85
2023-02-06T23:45:23.915Z,-7.99
2023-02-06T23:47:54.796Z,-8.11
2023-02-06T23:50:25.729Z,-8.20
2023-02-06T23:52:56.265Z,-8.23
2023-02-06T23:55:28.101Z,-8.23
2023-02-06T23:57:58.618Z,-8.20
